createdAt,value
2018-07-05T00:02:19.600Z,16.40
2018-07-05T00:04:58.585Z,16.40
2018-07-05T00:07:37.462Z,16.50
2018-07-05T00:10:16.384Z,16.40
2018-07-05T00:12:55.345Z,16.40
2018-07-05T00:15:34.246Z,16.30
2018-07-05T00:18:13.180Z,16.20
2018-07-05T00:20:52.144Z,16.20
2018-07-05T00:23:31.230Z,16.10
2018-07-05T00:26:10.221Z,16.20
2018-07-05T00:28:49.209Z,16.10
2018-07-05T00:31:27.996Z,16.20
2018-07-05T00:34:07.130Z,16.10
2018-07-05T00:36:46.148Z,16.10
2018-07-05T00:39:25.165Z,16.10
2018-07-05T00:42:04.226Z,16.10
2018-07-05T00:44:43.075Z,16.10
2018-07-05T00:47:22.162Z,16.10
2018-07-05T00:50:01.202Z,16.10
2018-07-05T00:52:40.073Z,16.10
2018-07-05T00:55:19.309Z,16.20
2018-07-05T00:57:58.212Z,16.20
2018-07-05T01:00:37.098Z,16.20
2018-07-05T01:03:16.007Z,16.30
2018-07-05T01:05:54.895Z,16.40
2018-07-05T01:08:34.018Z,16.40
2018-07-05T01:11:13.112Z,16.40
2018-07-05T01:13:52.000Z,16.40
2018-07-05T01:16:30.994Z,16.40
2018-07-05T01:19:09.863Z,16.30
2018-07-05T01:21:48.796Z,16.10
2018-07-05T01:24:27.780Z,16.00
2018-07-05T01:27:06.702Z,15.90
2018-07-05T01:29:45.774Z,15.80
2018-07-05T01:32:24.624Z,15.80
2018-07-05T01:35:03.529Z,15.70
2018-07-05T01:37:42.440Z,15.70
2018-07-05T01:40:21.376Z,15.60
2018-07-05T01:43:00.346Z,15.60
2018-07-05T01:45:39.398Z,15.60
2018-07-05T01:48:18.303Z,15.50
2018-07-05T01:50:57.302Z,15.50
2018-07-05T01:53:36.270Z,15.50
2018-07-05T01:56:15.354Z,15.40
2018-07-05T01:58:54.176Z,15.40
2018-07-05T02:01:33.204Z,15.40
2018-07-05T02:04:12.136Z,15.40
2018-07-05T02:06:51.068Z,15.40
2018-07-05T02:09:30.107Z,15.40
2018-07-05T02:12:09.139Z,15.40
2018-07-05T02:14:48.097Z,15.40
2018-07-05T02:17:27.122Z,15.30
2018-07-05T02:20:06.014Z,15.30
2018-07-05T02:22:45.012Z,15.30
2018-07-05T02:25:23.892Z,15.40
2018-07-05T02:28:02.826Z,15.40
2018-07-05T02:30:41.991Z,15.40
2018-07-05T02:33:20.914Z,15.30
2018-07-05T02:35:59.806Z,15.30
2018-07-05T02:38:38.741Z,15.40
2018-07-05T02:41:17.722Z,15.30
2018-07-05T02:43:56.538Z,15.30
2018-07-05T02:46:35.580Z,15.30
2018-07-05T02:49:14.433Z,15.40
2018-07-05T02:51:53.352Z,15.40
2018-07-05T02:54:32.378Z,15.40
2018-07-05T02:57:11.567Z,15.40
2018-07-05T02:59:50.542Z,15.80
2018-07-05T03:02:29.496Z,15.40
2018-07-05T03:05:08.472Z,15.30
2018-07-05T03:07:47.462Z,15.20
2018-07-05T03:10:26.457Z,15.30
2018-07-05T03:13:05.450Z,15.30
2018-07-05T03:15:44.378Z,15.40
2018-07-05T03:18:23.276Z,15.50
2018-07-05T03:21:02.245Z,15.60
2018-07-05T03:23:41.213Z,15.60
2018-07-05T03:26:20.158Z,15.60
2018-07-05T03:28:59.143Z,15.60
2018-07-05T03:31:38.118Z,15.70
2018-07-05T03:34:17.078Z,15.70
2018-07-05T03:36:56.105Z,15.70
2018-07-05T03:39:35.106Z,15.70
2018-07-05T03:42:13.981Z,15.70
2018-07-05T03:44:53.086Z,15.70
2018-07-05T03:47:31.987Z,15.70
2018-07-05T03:50:10.890Z,15.80
2018-07-05T03:52:49.902Z,15.80
2018-07-05T03:55:28.812Z,15.80
2018-07-05T03:58:07.896Z,15.90
2018-07-05T04:00:46.771Z,15.90
2018-07-05T04:03:25.783Z,16.00
2018-07-05T04:06:04.658Z,16.00
2018-07-05T04:08:43.704Z,16.00
2018-07-05T04:11:22.702Z,16.10
2018-07-05T04:14:01.597Z,16.10
2018-07-05T04:16:40.586Z,16.20
2018-07-05T04:19:19.590Z,16.20
2018-07-05T04:21:58.472Z,16.30
2018-07-05T04:24:37.527Z,16.30
2018-07-05T04:27:16.534Z,16.30
2018-07-05T04:29:55.410Z,16.40
2018-07-05T04:32:34.488Z,16.50
2018-07-05T04:35:13.453Z,16.60
2018-07-05T04:37:52.543Z,16.60
2018-07-05T04:40:31.497Z,16.60
2018-07-05T04:43:10.381Z,16.70
2018-07-05T04:45:49.317Z,16.80
2018-07-05T04:48:28.334Z,16.80
2018-07-05T04:51:07.256Z,17.00
2018-07-05T04:53:46.168Z,17.20
2018-07-05T04:56:25.122Z,17.40
2018-07-05T04:59:03.990Z,17.50
2018-07-05T05:01:43.030Z,17.50
2018-07-05T05:04:22.115Z,17.70
2018-07-05T05:07:01.274Z,17.90
2018-07-05T05:09:40.339Z,18.10
2018-07-05T05:12:19.289Z,18.40
2018-07-05T05:14:58.300Z,18.70
2018-07-05T05:20:10.313Z,19.40
2018-07-05T05:22:49.329Z,19.50
2018-07-05T05:25:28.244Z,19.50
2018-07-05T05:28:07.314Z,19.50
2018-07-05T05:30:46.313Z,19.60
2018-07-05T05:33:25.228Z,19.60
2018-07-05T05:36:04.219Z,19.60
2018-07-05T05:38:43.197Z,19.70
2018-07-05T05:41:22.114Z,19.70
2018-07-05T05:44:01.032Z,19.80
2018-07-05T05:46:40.062Z,19.80
2018-07-05T05:49:19.006Z,19.80
2018-07-05T05:51:57.998Z,19.90
2018-07-05T05:54:36.918Z,19.90
2018-07-05T05:57:15.902Z,20.10
2018-07-05T05:59:54.968Z,20.30
2018-07-05T06:02:33.998Z,20.40
2018-07-05T06:05:12.980Z,20.50
2018-07-05T06:07:52.082Z,20.50
2018-07-05T06:10:31.261Z,20.60
2018-07-05T06:13:10.164Z,20.50
2018-07-05T06:15:49.025Z,20.60
2018-07-05T06:18:28.034Z,20.60
2018-07-05T06:21:06.885Z,20.50
2018-07-05T06:23:45.870Z,20.60
2018-07-05T06:26:24.746Z,20.60
2018-07-05T06:29:03.749Z,20.60
2018-07-05T06:31:43.762Z,20.60
2018-07-05T06:34:22.862Z,20.70
2018-07-05T06:37:01.722Z,21.00
2018-07-05T06:39:40.727Z,21.20
2018-07-05T06:42:19.573Z,21.60
2018-07-05T06:44:58.482Z,22.00
2018-07-05T06:47:37.569Z,22.40
2018-07-05T06:50:16.520Z,22.60
2018-07-05T06:52:55.498Z,22.90
2018-07-05T06:55:34.422Z,23.00
2018-07-05T06:58:13.423Z,23.20
2018-07-05T07:00:52.312Z,23.40
2018-07-05T07:03:31.190Z,23.70
2018-07-05T07:06:10.134Z,23.90
2018-07-05T07:08:49.105Z,24.10
2018-07-05T07:11:28.039Z,24.40
2018-07-05T07:14:06.982Z,24.60
2018-07-05T07:16:45.944Z,24.80
2018-07-05T07:19:24.786Z,25.00
2018-07-05T07:22:03.748Z,25.10
2018-07-05T07:24:42.834Z,25.30
2018-07-05T07:27:21.778Z,25.50
2018-07-05T07:30:00.887Z,25.80
2018-07-05T07:32:39.796Z,25.90
2018-07-05T07:35:18.854Z,26.10
2018-07-05T07:37:57.782Z,26.30
2018-07-05T07:40:36.714Z,26.40
2018-07-05T07:43:03.230Z,26.40
2018-07-05T07:45:29.851Z,26.40
2018-07-05T07:47:56.332Z,26.30
2018-07-05T07:50:22.874Z,26.30
2018-07-05T07:52:49.406Z,26.30
2018-07-05T07:55:15.941Z,26.30
2018-07-05T07:57:42.464Z,26.40
2018-07-05T08:00:09.034Z,26.50
2018-07-05T08:02:35.566Z,26.60
2018-07-05T08:05:02.094Z,26.70
2018-07-05T08:07:28.634Z,26.90
2018-07-05T08:09:55.181Z,27.10
2018-07-05T08:12:21.745Z,27.40
2018-07-05T08:14:48.248Z,27.60
2018-07-05T08:17:14.831Z,27.70
2018-07-05T08:19:41.340Z,27.90
2018-07-05T08:22:07.865Z,28.00
2018-07-05T08:24:34.395Z,28.20
2018-07-05T08:27:02.994Z,28.80
2018-07-05T08:29:29.542Z,28.70
2018-07-05T08:31:56.077Z,29.00
2018-07-05T08:34:22.600Z,28.90
2018-07-05T08:36:49.115Z,28.80
2018-07-05T08:39:15.631Z,28.70
2018-07-05T08:41:42.152Z,28.60
2018-07-05T08:44:08.665Z,28.60
2018-07-05T08:46:35.178Z,28.60
2018-07-05T08:49:01.684Z,28.60
2018-07-05T08:51:28.218Z,28.70
2018-07-05T08:53:54.733Z,28.70
2018-07-05T08:56:21.257Z,28.80
2018-07-05T08:58:47.798Z,28.80
2018-07-05T09:01:14.317Z,28.70
2018-07-05T09:03:40.845Z,28.50
2018-07-05T09:06:07.371Z,28.40
2018-07-05T09:08:33.946Z,28.30
2018-07-05T09:11:00.458Z,28.30
2018-07-05T09:13:27.003Z,28.20
2018-07-05T09:15:53.526Z,28.20
2018-07-05T09:18:20.397Z,28.10
2018-07-05T09:20:46.969Z,28.00
2018-07-05T09:23:13.543Z,28.00
2018-07-05T09:25:40.070Z,28.00
2018-07-05T09:28:06.602Z,28.00
2018-07-05T09:30:33.137Z,28.00
2018-07-05T09:32:59.711Z,28.00
2018-07-05T09:35:26.288Z,28.00
2018-07-05T09:37:52.826Z,28.10
2018-07-05T09:40:19.340Z,28.10
2018-07-05T09:42:45.859Z,28.10
2018-07-05T09:45:12.626Z,28.20
2018-07-05T09:47:39.177Z,28.40
2018-07-05T09:50:05.722Z,28.50
2018-07-05T09:52:32.380Z,28.60
2018-07-05T09:54:58.899Z,28.80
2018-07-05T09:57:25.462Z,28.90
2018-07-05T09:59:52.086Z,29.00
2018-07-05T10:02:18.594Z,29.30
2018-07-05T10:04:45.185Z,29.60
2018-07-05T10:07:11.734Z,30.00
2018-07-05T10:09:38.278Z,30.10
2018-07-05T10:12:04.808Z,30.00
2018-07-05T10:14:31.374Z,29.90
2018-07-05T10:16:57.922Z,29.90
2018-07-05T10:19:24.560Z,30.10
2018-07-05T10:21:51.091Z,30.20
2018-07-05T10:24:17.677Z,30.20
2018-07-05T10:26:44.243Z,30.20
2018-07-05T10:29:23.225Z,30.20
2018-07-05T10:32:03.122Z,30.10
2018-07-05T10:34:29.650Z,30.30
2018-07-05T10:36:56.177Z,30.50
2018-07-05T10:39:22.741Z,30.60
2018-07-05T10:42:01.707Z,30.50
2018-07-05T10:44:40.587Z,30.40
2018-07-05T10:47:19.463Z,30.60
2018-07-05T10:49:58.346Z,30.80
2018-07-05T10:52:37.331Z,30.90
2018-07-05T10:55:16.423Z,31.00
2018-07-05T10:57:55.270Z,30.80
2018-07-05T11:00:34.188Z,31.00
2018-07-05T11:03:13.096Z,31.40
2018-07-05T11:05:52.093Z,31.60
2018-07-05T11:08:31.002Z,31.70
2018-07-05T11:11:09.854Z,31.70
2018-07-05T11:13:48.755Z,31.70
2018-07-05T11:16:27.906Z,31.50
2018-07-05T11:19:06.950Z,31.50
2018-07-05T11:21:45.908Z,31.70
2018-07-05T11:24:24.838Z,32.00
2018-07-05T11:27:03.790Z,32.30
2018-07-05T11:29:42.670Z,32.30
2018-07-05T11:32:21.846Z,32.40
2018-07-05T11:35:00.851Z,32.30
2018-07-05T11:37:40.017Z,31.90
2018-07-05T11:40:18.988Z,32.10
2018-07-05T11:42:58.548Z,32.30
2018-07-05T11:45:37.569Z,32.40
2018-07-05T11:48:16.572Z,32.30
2018-07-05T11:50:55.522Z,32.00
2018-07-05T11:53:34.529Z,31.70
2018-07-05T11:56:13.587Z,31.40
2018-07-05T11:58:52.508Z,31.10
2018-07-05T12:01:31.512Z,30.90
2018-07-05T12:04:10.455Z,30.80
2018-07-05T12:06:49.510Z,30.60
2018-07-05T12:09:28.402Z,30.40
2018-07-05T12:12:07.309Z,30.20
2018-07-05T12:14:46.263Z,30.10
2018-07-05T12:17:25.274Z,30.10
2018-07-05T12:20:04.366Z,30.10
2018-07-05T12:22:43.357Z,30.10
2018-07-05T12:25:22.355Z,30.00
2018-07-05T12:28:01.242Z,29.90
2018-07-05T12:30:40.466Z,29.90
2018-07-05T12:33:19.530Z,29.90
2018-07-05T12:35:58.563Z,29.90
2018-07-05T12:38:37.542Z,29.90
2018-07-05T12:41:16.608Z,29.90
2018-07-05T12:43:55.705Z,29.90
2018-07-05T12:46:34.737Z,29.90
2018-07-05T12:49:13.605Z,29.80
2018-07-05T12:51:52.620Z,29.70
2018-07-05T12:54:31.574Z,29.80
2018-07-05T12:57:11.502Z,30.00
2018-07-05T12:59:50.521Z,30.00
2018-07-05T13:02:31.854Z,30.00
2018-07-05T13:05:10.761Z,30.40
2018-07-05T13:07:49.685Z,30.60
2018-07-05T13:10:28.857Z,30.70
2018-07-05T13:13:08.670Z,30.90
2018-07-05T13:15:47.697Z,31.10
2018-07-05T13:18:26.702Z,31.40
2018-07-05T13:21:05.732Z,31.20
2018-07-05T13:23:44.672Z,31.20
2018-07-05T13:26:23.653Z,31.30
2018-07-05T13:29:02.734Z,31.60
2018-07-05T13:31:41.633Z,31.50
2018-07-05T13:34:20.760Z,31.30
2018-07-05T13:36:59.746Z,31.30
2018-07-05T13:39:38.835Z,31.10
2018-07-05T13:42:17.888Z,30.90
2018-07-05T13:44:56.734Z,30.70
2018-07-05T13:47:35.726Z,30.60
2018-07-05T13:50:14.822Z,30.50
2018-07-05T13:52:53.754Z,30.40
2018-07-05T13:55:32.709Z,30.30
2018-07-05T13:58:11.683Z,30.30
2018-07-05T14:00:50.624Z,30.40
2018-07-05T14:03:29.490Z,30.50
2018-07-05T14:06:08.476Z,30.60
2018-07-05T14:08:47.567Z,30.50
2018-07-05T14:11:26.434Z,30.70
2018-07-05T14:14:05.353Z,31.00
2018-07-05T14:16:44.366Z,31.30
2018-07-05T14:19:23.512Z,31.60
2018-07-05T14:22:02.605Z,31.70
2018-07-05T14:24:41.778Z,31.90
2018-07-05T14:27:20.698Z,31.90
2018-07-05T14:29:59.781Z,31.90
2018-07-05T14:32:38.814Z,32.00
2018-07-05T14:35:17.852Z,31.90
2018-07-05T14:37:56.669Z,31.50
2018-07-05T14:40:35.594Z,31.30
2018-07-05T14:43:14.525Z,31.00
2018-07-05T14:45:53.487Z,30.90
2018-07-05T14:48:32.468Z,30.80
2018-07-05T14:51:11.590Z,30.70
2018-07-05T14:53:50.566Z,30.50
2018-07-05T14:56:29.605Z,30.40
2018-07-05T14:59:08.540Z,30.40
2018-07-05T15:01:47.634Z,30.30
2018-07-05T15:04:26.762Z,30.30
2018-07-05T15:07:05.782Z,30.30
2018-07-05T15:09:44.763Z,30.20
2018-07-05T15:12:23.866Z,30.20
2018-07-05T15:15:02.849Z,30.10
2018-07-05T15:17:41.912Z,30.10
2018-07-05T15:20:20.841Z,30.30
2018-07-05T15:22:59.954Z,30.30
2018-07-05T15:25:38.963Z,30.20
2018-07-05T15:28:17.871Z,30.20
2018-07-05T15:30:56.762Z,30.00
2018-07-05T15:33:35.702Z,29.90
2018-07-05T15:36:14.656Z,29.80
2018-07-05T15:38:53.624Z,29.60
2018-07-05T15:41:32.542Z,29.50
2018-07-05T15:44:11.558Z,29.40
2018-07-05T15:46:50.501Z,29.30
2018-07-05T15:49:29.348Z,29.20
2018-07-05T15:52:08.394Z,29.20
2018-07-05T15:54:47.462Z,29.10
2018-07-05T15:57:27.282Z,29.00
2018-07-05T16:00:06.338Z,29.00
2018-07-05T16:02:45.536Z,28.90
2018-07-05T16:05:24.674Z,28.90
2018-07-05T16:08:03.755Z,28.80
2018-07-05T16:10:42.766Z,28.90
2018-07-05T16:13:21.825Z,28.80
2018-07-05T16:16:00.878Z,28.60
2018-07-05T16:18:39.813Z,28.50
2018-07-05T16:21:19.019Z,28.50
2018-07-05T16:23:58.222Z,28.60
2018-07-05T16:26:37.500Z,28.60
2018-07-05T16:29:16.649Z,28.50
2018-07-05T16:31:55.819Z,28.40
2018-07-05T16:34:34.816Z,28.30
2018-07-05T16:37:13.851Z,28.20
2018-07-05T16:39:52.846Z,28.00
2018-07-05T16:42:32.106Z,27.90
2018-07-05T16:45:11.457Z,27.80
2018-07-05T16:47:50.621Z,27.70
2018-07-05T16:50:29.640Z,27.50
2018-07-05T16:53:08.704Z,27.40
2018-07-05T16:55:47.805Z,27.30
2018-07-05T16:58:26.859Z,27.20
2018-07-05T17:01:06.008Z,27.20
2018-07-05T17:03:45.129Z,27.20
2018-07-05T17:06:24.291Z,27.10
2018-07-05T17:09:04.431Z,27.00
2018-07-05T17:11:43.467Z,27.00
2018-07-05T17:14:22.615Z,27.00
2018-07-05T17:17:01.690Z,26.90
2018-07-05T17:19:40.843Z,26.80
2018-07-05T17:22:19.822Z,26.80
2018-07-05T17:24:58.759Z,26.70
2018-07-05T17:27:37.702Z,26.60
2018-07-05T17:30:16.797Z,26.60
2018-07-05T17:32:55.865Z,26.60
2018-07-05T17:35:35.037Z,26.50
2018-07-05T17:38:13.821Z,26.40
2018-07-05T17:40:52.814Z,26.50
2018-07-05T17:43:31.917Z,26.50
2018-07-05T17:46:11.207Z,26.50
2018-07-05T17:48:50.302Z,26.40
2018-07-05T17:51:29.415Z,26.20
2018-07-05T17:54:08.472Z,26.20
2018-07-05T17:56:47.990Z,26.00
2018-07-05T17:59:27.368Z,26.00
2018-07-05T18:02:06.455Z,26.00
2018-07-05T18:04:45.316Z,25.80
2018-07-05T18:07:24.309Z,25.60
2018-07-05T18:10:03.380Z,25.50
2018-07-05T18:12:42.315Z,25.40
2018-07-05T18:15:21.434Z,25.20
2018-07-05T18:18:00.513Z,25.10
2018-07-05T18:20:39.638Z,25.00
2018-07-05T18:23:18.615Z,24.90
2018-07-05T18:25:57.612Z,24.80
2018-07-05T18:28:36.483Z,24.80
2018-07-05T18:31:15.387Z,24.80
2018-07-05T18:33:54.447Z,24.70
2018-07-05T18:36:33.355Z,24.70
2018-07-05T18:39:12.274Z,24.60
2018-07-05T18:41:51.218Z,24.50
2018-07-05T18:44:30.157Z,24.40
2018-07-05T18:47:09.238Z,24.40
2018-07-05T18:49:48.166Z,24.30
2018-07-05T18:52:27.122Z,24.10
2018-07-05T18:55:06.050Z,24.00
2018-07-05T18:57:44.955Z,23.90
2018-07-05T19:00:23.819Z,23.90
2018-07-05T19:03:02.847Z,23.80
2018-07-05T19:05:41.870Z,23.70
2018-07-05T19:08:20.766Z,23.60
2018-07-05T19:10:59.722Z,23.30
2018-07-05T19:13:38.625Z,23.10
2018-07-05T19:16:17.616Z,23.00
2018-07-05T19:18:56.717Z,22.80
2018-07-05T19:21:36.206Z,22.70
2018-07-05T19:24:15.280Z,22.60
2018-07-05T19:26:54.243Z,22.40
2018-07-05T19:29:33.243Z,22.30
2018-07-05T19:32:12.338Z,22.10
2018-07-05T19:34:51.226Z,22.10
2018-07-05T19:37:30.170Z,22.00
2018-07-05T19:40:09.108Z,21.80
2018-07-05T19:42:48.112Z,21.60
2018-07-05T19:45:27.196Z,21.30
2018-07-05T19:48:06.297Z,21.00
2018-07-05T19:50:45.245Z,20.90
2018-07-05T19:53:24.310Z,20.80
2018-07-05T19:56:03.237Z,20.70
2018-07-05T19:58:42.199Z,20.70
2018-07-05T20:01:21.099Z,20.50
2018-07-05T20:04:00.151Z,20.30
2018-07-05T20:06:39.093Z,20.20
2018-07-05T20:09:18.094Z,20.10
2018-07-05T20:12:02.788Z,20.10
2018-07-05T20:14:41.830Z,20.10
2018-07-05T20:17:20.826Z,20.00
2018-07-05T20:20:00.013Z,20.00
2018-07-05T20:22:39.151Z,19.90
2018-07-05T20:25:18.100Z,20.00
2018-07-05T20:27:57.076Z,20.00
2018-07-05T20:30:36.021Z,19.90
2018-07-05T20:35:49.164Z,19.90
2018-07-05T20:38:27.976Z,19.90
2018-07-05T20:41:07.158Z,20.00
2018-07-05T20:43:46.198Z,19.90
2018-07-05T20:46:25.917Z,20.00
2018-07-05T20:49:05.010Z,19.90
2018-07-05T20:51:43.979Z,19.90
2018-07-05T20:54:22.902Z,19.90
2018-07-05T20:57:01.890Z,19.90
2018-07-05T20:59:40.894Z,19.90
2018-07-05T21:02:19.874Z,20.00
2018-07-05T21:04:58.850Z,19.90
2018-07-05T21:07:37.840Z,20.00
2018-07-05T21:10:16.802Z,20.00
2018-07-05T21:12:55.644Z,20.00
2018-07-05T21:15:34.782Z,19.90
2018-07-05T21:18:13.693Z,19.90
2018-07-05T21:20:52.673Z,19.90
2018-07-05T21:23:31.586Z,19.90
2018-07-05T21:26:10.572Z,19.90
2018-07-05T21:28:49.556Z,20.00
2018-07-05T21:34:01.768Z,19.90
2018-07-05T21:36:40.736Z,20.00
2018-07-05T21:39:19.753Z,19.90
2018-07-05T21:41:58.875Z,19.80
2018-07-05T21:44:37.911Z,19.80
2018-07-05T21:47:16.940Z,19.80
2018-07-05T21:49:56.028Z,19.80
2018-07-05T21:52:35.172Z,19.80
2018-07-05T21:55:14.260Z,19.70
2018-07-05T21:57:53.216Z,19.70
2018-07-05T22:00:32.147Z,19.60
2018-07-05T22:03:11.193Z,19.50
2018-07-05T22:05:50.109Z,19.50
2018-07-05T22:08:29.040Z,19.40
2018-07-05T22:11:08.084Z,19.30
2018-07-05T22:13:47.057Z,19.20
2018-07-05T22:16:26.116Z,19.20
2018-07-05T22:19:10.965Z,19.20
2018-07-05T22:21:55.852Z,19.10
2018-07-05T22:24:40.675Z,19.10
2018-07-05T22:27:25.488Z,19.20
2018-07-05T22:30:10.241Z,19.20
2018-07-05T22:32:49.267Z,19.00
2018-07-05T22:35:28.386Z,19.00
2018-07-05T22:38:07.379Z,19.00
2018-07-05T22:40:46.415Z,19.00
2018-07-05T22:43:25.336Z,18.90
2018-07-05T22:46:04.276Z,18.90
2018-07-05T22:48:43.269Z,18.90
2018-07-05T22:51:22.322Z,18.90
2018-07-05T22:54:01.324Z,18.80
2018-07-05T22:56:40.508Z,18.90
2018-07-05T22:59:19.511Z,18.80
2018-07-05T23:01:58.500Z,18.80
2018-07-05T23:04:37.564Z,18.80
2018-07-05T23:07:16.600Z,18.70
2018-07-05T23:09:55.597Z,18.60
2018-07-05T23:12:34.612Z,18.60
2018-07-05T23:15:13.628Z,18.50
2018-07-05T23:17:52.669Z,18.50
2018-07-05T23:20:31.780Z,18.40
2018-07-05T23:23:10.719Z,18.40
2018-07-05T23:25:49.717Z,18.30
2018-07-05T23:28:28.757Z,18.30
2018-07-05T23:31:07.800Z,18.30
2018-07-05T23:33:46.921Z,18.20
2018-07-05T23:36:25.908Z,18.30
2018-07-05T23:39:05.296Z,18.20
2018-07-05T23:41:44.293Z,18.20
2018-07-05T23:44:23.403Z,18.30
2018-07-05T23:47:02.513Z,18.30
2018-07-05T23:49:41.364Z,18.30
2018-07-05T23:52:20.401Z,18.30
2018-07-05T23:54:59.420Z,18.30
2018-07-05T23:57:38.456Z,18.30
